Landen, Belgium
Current Conditions -  °F | °C
As of 1:25 PM on Friday 24 Oct 2014 (Local Time) from EBBE Reporting Station
Broken Clouds Broken Clouds  
Wind Chill: 54°   Ceiling: 6000
Heat Index: 54°   Visibility: 6mi
Dew Point: 48°   Wind: 14mph
Humidity: 82%   Direction: 200°SSW
Pressure: 30.09"   Gusts: NA
Location:  50.75°N, 5.08°E
Report Text: EBBE 241125Z 20012KT 9999 FEW020 BKN060 12/09 Q1019 BLU BLU BECMG WHT
Loading
Personal Weather Stations






























Interactive Weather Map
Tropical Storm Tracking
New forecast layout! Learn more

10-Day Weather Forecast

Advertisements
Track Severe Weather on mobile